Time;durP1;ratioP1;P1;durP2;ratioP2;P2;SDS_P1;SDS_P2;PMS_P1;PMS_P2;Temp;Humidity;BMP_temperature;BMP_pressure;BME280_temperature;BME280_humidity;BME280_pressure;Samples;Min_cycle;Max_cycle;Signal;HPM_P1;HPM_P2
2022/03/13 00:00:10;;;;;;;16.13;8.47;;;5.20;99.90;;;;;;5018766;28;20311;-69
2022/03/13 00:02:38;;;;;;;16.87;8.07;;;5.20;99.90;;;;;;5025458;28;20197;-70
2022/03/13 00:05:12;;;;;;;14.83;8.23;;;5.20;99.90;;;;;;5016625;28;20200;-67
2022/03/13 00:07:39;;;;;;;14.87;8.00;;;5.10;99.90;;;;;;5024692;28;20233;-69
2022/03/13 00:10:11;;;;;;;16.83;7.83;;;5.00;99.90;;;;;;5020455;28;20667;-71
2022/03/13 00:12:39;;;;;;;14.17;8.10;;;4.90;99.90;;;;;;5015075;28;20265;-69
2022/03/13 00:15:09;;;;;;;15.23;8.37;;;4.80;99.90;;;;;;5021326;28;20253;-70
2022/03/13 00:17:35;;;;;;;14.87;8.20;;;4.90;99.90;;;;;;5020151;28;20231;-71
2022/03/13 00:20:05;;;;;;;14.60;7.27;;;4.70;99.90;;;;;;5026845;28;20565;-71
2022/03/13 00:22:33;;;;;;;14.13;7.47;;;4.60;99.90;;;;;;5022740;28;20208;-71
2022/03/13 00:25:02;;;;;;;19.70;8.70;;;4.60;99.90;;;;;;5023804;28;20203;-71
2022/03/13 00:27:31;;;;;;;13.57;7.50;;;4.70;99.90;;;;;;5019411;28;20767;-71
2022/03/13 00:29:58;;;;;;;14.20;7.50;;;4.80;99.90;;;;;;5023736;28;20293;-71
2022/03/13 00:32:25;;;;;;;12.73;7.80;;;4.60;99.90;;;;;;5016609;28;20220;-70
2022/03/13 00:34:52;;;;;;;12.03;7.33;;;4.50;99.90;;;;;;5018722;28;20288;-70
2022/03/13 00:37:19;;;;;;;13.57;7.97;;;4.50;99.90;;;;;;5021477;28;20259;-71
2022/03/13 00:39:49;;;;;;;14.80;8.13;;;4.40;99.90;;;;;;5027484;28;20424;-70
2022/03/13 00:42:17;;;;;;;17.87;7.93;;;4.40;99.90;;;;;;5024529;28;20196;-70
2022/03/13 00:44:44;;;;;;;17.97;8.20;;;4.30;99.90;;;;;;5016716;28;20199;-71
2022/03/13 00:47:10;;;;;;;18.03;8.73;;;4.30;99.90;;;;;;5023179;28;20270;-72
2022/03/13 00:49:37;;;;;;;16.63;8.83;;;4.30;99.90;;;;;;5023275;28;20206;-68
2022/03/13 00:52:04;;;;;;;20.70;9.10;;;4.20;99.90;;;;;;5022899;28;20702;-71
2022/03/13 00:54:33;;;;;;;17.17;8.70;;;4.20;99.90;;;;;;5025036;28;20629;-71
2022/03/13 00:57:00;;;;;;;20.17;8.80;;;4.20;99.90;;;;;;5016957;28;20196;-71
2022/03/13 00:59:26;;;;;;;15.90;8.30;;;4.20;99.90;;;;;;5016822;28;20199;-72
2022/03/13 01:01:53;;;;;;;15.43;8.13;;;4.20;99.90;;;;;;5026529;28;20192;-71
2022/03/13 01:04:20;;;;;;;14.50;8.00;;;4.20;99.90;;;;;;5024868;28;20777;-69
2022/03/13 01:06:47;;;;;;;14.30;8.33;;;4.20;99.90;;;;;;5014908;28;20623;-71
2022/03/13 01:09:13;;;;;;;16.80;8.20;;;4.20;99.90;;;;;;5023436;28;20216;-71
2022/03/13 01:11:40;;;;;;;15.97;8.10;;;4.20;99.90;;;;;;5031440;28;20672;-71
2022/03/13 01:14:08;;;;;;;19.23;8.60;;;4.10;99.90;;;;;;5026338;28;20269;-71
2022/03/13 01:16:39;;;;;;;16.60;8.07;;;4.10;99.90;;;;;;5016510;28;20513;-71
2022/03/13 01:19:07;;;;;;;18.37;8.10;;;4.10;99.90;;;;;;5024735;28;20687;-70
2022/03/13 01:21:38;;;;;;;13.97;8.00;;;4.10;99.90;;;;;;5022702;28;20193;-71
2022/03/13 01:24:05;;;;;;;17.17;8.43;;;4.10;99.90;;;;;;5027008;28;20203;-71
2022/03/13 01:26:36;;;;;;;15.87;7.80;;;4.00;99.90;;;;;;5021165;28;20208;-71
2022/03/13 01:29:12;;;;;;;18.50;9.30;;;4.00;99.90;;;;;;5023794;28;20215;-71
2022/03/13 01:31:43;;;;;;;15.33;8.00;;;4.00;99.90;;;;;;5020921;28;20203;-71
2022/03/13 01:34:26;;;;;;;14.10;7.73;;;4.00;99.90;;;;;;5022665;28;20310;-72
2022/03/13 01:36:53;;;;;;;14.60;7.50;;;4.00;99.90;;;;;;5027538;28;20571;-72
2022/03/13 01:39:19;;;;;;;13.27;6.90;;;3.90;99.90;;;;;;5023518;28;20196;-71
2022/03/13 01:41:46;;;;;;;14.40;7.67;;;3.90;99.90;;;;;;5027513;28;20196;-71
2022/03/13 01:44:12;;;;;;;16.37;7.97;;;3.80;99.90;;;;;;5022652;28;20196;-71
2022/03/13 01:46:39;;;;;;;12.43;7.57;;;3.80;99.90;;;;;;5018777;28;20199;-71
2022/03/13 01:49:08;;;;;;;15.53;8.03;;;3.80;99.90;;;;;;5023860;28;20223;-71
2022/03/13 01:51:35;;;;;;;13.13;7.10;;;3.70;99.90;;;;;;5021085;28;20464;-72
2022/03/13 01:54:05;;;;;;;14.03;7.27;;;3.80;99.90;;;;;;5023927;28;20227;-71
2022/03/13 01:56:34;;;;;;;13.90;7.23;;;3.70;99.90;;;;;;5025234;28;20196;-70
2022/03/13 01:59:01;;;;;;;12.57;7.13;;;3.70;99.90;;;;;;5024653;28;20218;-71
2022/03/13 02:01:28;;;;;;;12.97;7.17;;;3.60;99.90;;;;;;5021150;28;20214;-71
2022/03/13 02:03:57;;;;;;;14.77;7.53;;;3.60;99.90;;;;;;5020932;28;20202;-71
2022/03/13 02:06:24;;;;;;;16.90;7.57;;;3.70;99.90;;;;;;5022242;28;20207;-71
2022/03/13 02:08:51;;;;;;;14.27;7.50;;;3.60;99.90;;;;;;5024046;28;20221;-69
2022/03/13 02:11:20;;;;;;;14.60;7.37;;;3.50;99.90;;;;;;5023185;28;20195;-71
2022/03/13 02:13:50;;;;;;;14.97;7.90;;;3.50;99.90;;;;;;5019350;28;20216;-70
2022/03/13 02:16:18;;;;;;;14.03;7.17;;;3.50;99.90;;;;;;5029313;28;20210;-68
2022/03/13 02:18:49;;;;;;;13.43;7.37;;;3.50;99.90;;;;;;5022244;28;20215;-70
2022/03/13 02:21:17;;;;;;;15.27;7.27;;;3.50;99.90;;;;;;5020805;28;20191;-68
2022/03/13 02:23:45;;;;;;;15.40;8.13;;;3.40;99.90;;;;;;5023097;28;20575;-69
2022/03/13 02:26:11;;;;;;;15.13;7.63;;;3.30;99.90;;;;;;5015596;28;20200;-70
2022/03/13 02:28:50;;;;;;;13.33;7.17;;;3.30;99.90;;;;;;5017568;28;20706;-70
2022/03/13 02:31:30;;;;;;;13.97;7.43;;;3.20;99.90;;;;;;5015304;28;20206;-70
2022/03/13 02:33:57;;;;;;;13.40;6.90;;;3.30;99.90;;;;;;5022936;28;20554;-72
2022/03/13 02:36:24;;;;;;;16.47;7.17;;;3.30;99.90;;;;;;5021975;28;20192;-71
2022/03/13 02:38:50;;;;;;;11.87;7.00;;;3.40;99.90;;;;;;5020265;28;20215;-71
2022/03/13 02:41:17;;;;;;;15.53;7.30;;;3.40;99.90;;;;;;5023817;28;20197;-71
2022/03/13 02:43:44;;;;;;;15.00;7.43;;;3.50;99.90;;;;;;5017707;28;20199;-71
2022/03/13 02:46:20;;;;;;;16.00;7.77;;;3.50;99.90;;;;;;5011697;28;20196;-71
2022/03/13 02:48:48;;;;;;;14.00;7.07;;;3.50;99.90;;;;;;5023877;28;20228;-70
2022/03/13 02:51:15;;;;;;;13.60;7.00;;;3.40;99.90;;;;;;5026252;28;20203;-71
2022/03/13 02:53:42;;;;;;;13.97;6.93;;;3.30;99.90;;;;;;5018473;28;20246;-70
2022/03/13 02:56:09;;;;;;;12.57;6.90;;;3.20;99.90;;;;;;5025469;28;20201;-70
2022/03/13 02:58:36;;;;;;;17.63;8.10;;;3.20;99.90;;;;;;5024541;28;20701;-69
2022/03/13 03:01:03;;;;;;;16.10;8.17;;;3.20;99.90;;;;;;5020247;28;20230;-70
2022/03/13 03:03:30;;;;;;;17.80;8.33;;;3.20;99.90;;;;;;5018392;28;20200;-70
2022/03/13 03:05:57;;;;;;;14.73;7.53;;;3.40;99.90;;;;;;5019243;28;20583;-71
2022/03/13 03:08:23;;;;;;;12.90;7.57;;;3.10;99.90;;;;;;5021165;28;20219;-70
2022/03/13 03:10:50;;;;;;;13.93;7.03;;;3.00;99.90;;;;;;5036790;28;20603;-70
2022/03/13 03:13:17;;;;;;;14.60;8.03;;;2.90;99.90;;;;;;5017880;28;20223;-71
2022/03/13 03:15:44;;;;;;;16.87;7.50;;;2.80;99.90;;;;;;5023378;28;20203;-70
2022/03/13 03:18:11;;;;;;;13.73;7.20;;;3.00;99.90;;;;;;5024655;28;20247;-72
2022/03/13 03:20:39;;;;;;;15.00;8.10;;;3.10;99.90;;;;;;5025294;28;20688;-70
2022/03/13 03:23:07;;;;;;;16.73;7.33;;;3.10;99.90;;;;;;5039015;28;20191;-70
2022/03/13 03:25:34;;;;;;;13.17;6.90;;;3.00;99.90;;;;;;5021111;28;20201;-70
2022/03/13 03:28:00;;;;;;;15.27;8.03;;;2.90;99.90;;;;;;5021769;28;20212;-70
2022/03/13 03:30:29;;;;;;;13.00;7.17;;;2.70;99.90;;;;;;5022353;28;20629;-71
2022/03/13 03:32:57;;;;;;;13.53;7.20;;;2.60;99.90;;;;;;5022078;28;20202;-71
2022/03/13 03:35:25;;;;;;;15.30;7.40;;;2.70;99.90;;;;;;5021844;28;20198;-70
2022/03/13 03:37:54;;;;;;;13.57;7.03;;;2.70;99.90;;;;;;5022101;28;20214;-70
2022/03/13 03:40:24;;;;;;;16.20;7.93;;;2.70;99.90;;;;;;5013927;28;20205;-70
2022/03/13 03:43:00;;;;;;;11.53;6.63;;;2.50;99.90;;;;;;5020587;28;20565;-70
2022/03/13 03:45:27;;;;;;;14.73;7.47;;;2.60;99.90;;;;;;5021523;28;20596;-70
2022/03/13 03:47:54;;;;;;;14.33;7.40;;;2.60;99.90;;;;;;5023136;28;20235;-71
2022/03/13 03:50:21;;;;;;;16.67;7.20;;;2.60;99.90;;;;;;5027003;28;20198;-72
2022/03/13 03:52:50;;;;;;;13.13;7.10;;;2.50;99.90;;;;;;5021540;28;20189;-70
2022/03/13 03:55:17;;;;;;;13.30;6.83;;;2.50;99.90;;;;;;5024561;28;20221;-69
2022/03/13 03:57:44;;;;;;;14.40;7.43;;;2.40;99.90;;;;;;5020908;28;20292;-70
2022/03/13 04:00:11;;;;;;;14.60;6.70;;;2.50;99.90;;;;;;5017854;28;20215;-72
2022/03/13 04:02:38;;;;;;;16.27;7.17;;;2.60;99.90;;;;;;5023999;28;20193;-69
2022/03/13 04:05:06;;;;;;;12.17;6.23;;;2.50;99.90;;;;;;5026503;28;20201;-70
2022/03/13 04:07:32;;;;;;;14.43;6.80;;;2.40;99.90;;;;;;5031680;28;20225;-70
2022/03/13 04:09:59;;;;;;;14.10;6.37;;;2.50;99.90;;;;;;5024419;28;20700;-70
2022/03/13 04:12:26;;;;;;;12.80;6.80;;;2.50;99.90;;;;;;5022383;28;20205;-70
2022/03/13 04:14:53;;;;;;;12.57;6.10;;;2.40;99.90;;;;;;5022070;28;20231;-71
2022/03/13 04:17:19;;;;;;;11.97;6.63;;;2.40;99.90;;;;;;5025202;28;20217;-71
2022/03/13 04:19:46;;;;;;;12.30;6.47;;;2.40;99.90;;;;;;5025847;28;20202;-70
2022/03/13 04:22:15;;;;;;;11.63;6.83;;;2.50;99.90;;;;;;5024772;28;20516;-70
2022/03/13 04:24:42;;;;;;;12.63;6.37;;;2.70;99.90;;;;;;5023174;28;20622;-71
2022/03/13 04:27:09;;;;;;;11.87;6.40;;;2.70;99.90;;;;;;5027576;28;20269;-70
2022/03/13 04:29:36;;;;;;;14.30;7.00;;;2.80;99.90;;;;;;5023029;28;20195;-70
2022/03/13 04:32:08;;;;;;;13.07;6.80;;;2.70;99.90;;;;;;5023411;28;20196;-70
2022/03/13 04:34:37;;;;;;;12.33;7.00;;;2.60;99.90;;;;;;5019803;28;20232;-70
2022/03/13 04:37:05;;;;;;;16.33;7.17;;;2.50;99.90;;;;;;5021609;28;20220;-71
2022/03/13 04:39:35;;;;;;;11.83;7.10;;;2.40;99.90;;;;;;5018898;28;20228;-72
2022/03/13 04:42:05;;;;;;;13.17;6.57;;;2.30;99.90;;;;;;5020128;28;20680;-70
2022/03/13 04:44:34;;;;;;;11.67;6.10;;;2.20;99.90;;;;;;5024082;28;20209;-71
2022/03/13 04:47:01;;;;;;;12.30;6.17;;;2.40;99.90;;;;;;5027049;28;20548;-70
2022/03/13 04:49:28;;;;;;;12.47;6.03;;;2.40;99.90;;;;;;5030910;28;20196;-70
2022/03/13 04:51:55;;;;;;;13.90;6.37;;;2.30;99.90;;;;;;5021201;28;20210;-70
2022/03/13 04:54:22;;;;;;;12.37;5.77;;;2.30;99.90;;;;;;5025722;28;20216;-71
2022/03/13 04:56:49;;;;;;;10.63;5.83;;;2.50;99.90;;;;;;5025206;28;20194;-71
2022/03/13 04:59:15;;;;;;;12.07;6.73;;;2.70;99.90;;;;;;5027948;28;20190;-71
2022/03/13 05:01:42;;;;;;;14.13;6.47;;;2.70;99.90;;;;;;5022012;28;20689;-70
2022/03/13 05:04:13;;;;;;;13.20;6.47;;;2.70;99.90;;;;;;5021733;28;20301;-70
2022/03/13 05:06:40;;;;;;;10.60;5.87;;;2.70;99.90;;;;;;5026706;28;20210;-70
2022/03/13 05:09:07;;;;;;;13.20;6.00;;;2.70;99.90;;;;;;5020566;28;20196;-70
2022/03/13 05:11:34;;;;;;;12.43;6.90;;;2.60;99.90;;;;;;5022087;28;20205;-70
2022/03/13 05:14:01;;;;;;;13.43;6.07;;;2.70;99.90;;;;;;5017269;28;20280;-70
2022/03/13 05:16:27;;;;;;;10.97;6.10;;;2.80;99.90;;;;;;5025535;28;20235;-70
2022/03/13 05:18:54;;;;;;;11.43;5.90;;;2.90;99.90;;;;;;5019790;28;20222;-70
2022/03/13 05:21:20;;;;;;;12.63;6.03;;;3.00;99.90;;;;;;5022783;28;20218;-71
2022/03/13 05:23:47;;;;;;;11.53;6.10;;;3.00;99.90;;;;;;5020754;28;20193;-70
2022/03/13 05:26:14;;;;;;;13.67;6.53;;;3.00;99.90;;;;;;5026136;28;20547;-71
2022/03/13 05:28:40;;;;;;;10.63;5.47;;;3.10;99.90;;;;;;5031485;28;20227;-70
2022/03/13 05:31:07;;;;;;;10.30;6.00;;;3.10;99.90;;;;;;5020877;28;20203;-71
2022/03/13 05:33:34;;;;;;;11.00;6.07;;;3.10;99.90;;;;;;5025185;28;20201;-70
2022/03/13 05:36:01;;;;;;;12.43;6.10;;;3.00;99.90;;;;;;5021199;28;20198;-69
2022/03/13 05:38:28;;;;;;;12.37;6.23;;;2.90;99.90;;;;;;5035197;28;20229;-70
2022/03/13 05:40:56;;;;;;;11.80;5.83;;;2.80;99.90;;;;;;5024538;28;20201;-68
2022/03/13 05:43:23;;;;;;;10.43;6.23;;;2.90;99.90;;;;;;5028035;28;20294;-70
2022/03/13 05:45:52;;;;;;;9.90;5.67;;;2.90;99.90;;;;;;5022712;28;20198;-69
2022/03/13 05:48:20;;;;;;;10.77;5.77;;;2.90;99.90;;;;;;5034274;28;20307;-69
2022/03/13 05:50:46;;;;;;;10.50;5.77;;;2.80;99.90;;;;;;5021078;28;20303;-70
2022/03/13 05:53:13;;;;;;;12.23;6.07;;;2.80;99.90;;;;;;5023826;28;20566;-70
2022/03/13 05:55:40;;;;;;;12.27;6.50;;;2.80;99.90;;;;;;5022962;28;20224;-69
2022/03/13 05:58:07;;;;;;;12.10;5.67;;;2.80;99.90;;;;;;5025103;28;20252;-69
2022/03/13 06:00:33;;;;;;;10.80;5.67;;;2.80;99.90;;;;;;5021385;28;20207;-68
2022/03/13 06:03:01;;;;;;;10.50;6.00;;;2.70;99.90;;;;;;5025307;28;20320;-68
2022/03/13 06:05:30;;;;;;;11.40;6.10;;;2.80;99.90;;;;;;5020753;28;20253;-68
2022/03/13 06:07:57;;;;;;;9.87;5.93;;;2.80;99.90;;;;;;5020713;28;20218;-68
2022/03/13 06:10:24;;;;;;;12.60;5.73;;;2.90;99.90;;;;;;5018125;28;20211;-68
2022/03/13 06:12:50;;;;;;;10.03;5.93;;;2.90;99.90;;;;;;5019413;28;20726;-67
2022/03/13 06:15:17;;;;;;;14.87;6.20;;;3.00;99.90;;;;;;5018491;28;20218;-68
2022/03/13 06:17:46;;;;;;;10.03;5.93;;;3.10;99.90;;;;;;5023711;28;20215;-68
2022/03/13 06:20:15;;;;;;;9.13;5.37;;;3.10;99.90;;;;;;5024009;28;20202;-68
2022/03/13 06:22:43;;;;;;;13.77;6.70;;;3.20;99.90;;;;;;5017868;28;20628;-68
2022/03/13 06:25:11;;;;;;;10.77;5.93;;;3.30;99.90;;;;;;5020619;28;20195;-69
2022/03/13 06:27:38;;;;;;;13.97;5.73;;;3.50;99.90;;;;;;5022860;28;20244;-68
2022/03/13 06:30:14;;;;;;;13.37;6.30;;;3.50;99.90;;;;;;5021662;28;20199;-68
2022/03/13 06:32:42;;;;;;;13.93;6.03;;;3.60;99.90;;;;;;5026906;28;20569;-69
2022/03/13 06:35:10;;;;;;;14.57;5.87;;;3.60;99.90;;;;;;5024691;28;20215;-69
2022/03/13 06:37:40;;;;;;;10.33;5.80;;;3.90;99.90;;;;;;5024335;28;20214;-67
2022/03/13 06:40:14;;;;;;;9.87;5.77;;;4.10;99.90;;;;;;5016642;28;20191;-68
2022/03/13 06:42:40;;;;;;;12.50;6.40;;;4.30;99.90;;;;;;5022614;28;20195;-69
2022/03/13 06:45:10;;;;;;;12.63;6.10;;;4.50;99.90;;;;;;5024127;28;20203;-69
2022/03/13 06:47:41;;;;;;;12.43;6.20;;;4.60;99.90;;;;;;5021922;28;20221;-67
2022/03/13 06:50:08;;;;;;;11.07;6.23;;;4.80;99.90;;;;;;5020148;28;20194;-69
2022/03/13 06:52:35;;;;;;;10.93;5.70;;;4.90;99.90;;;;;;5028162;28;20205;-68
2022/03/13 06:55:04;;;;;;;11.23;5.97;;;5.10;99.90;;;;;;5018236;28;20224;-68
2022/03/13 06:57:32;;;;;;;11.60;6.03;;;5.40;99.90;;;;;;5022471;28;20314;-68
2022/03/13 06:59:59;;;;;;;11.27;5.97;;;5.70;99.90;;;;;;5022095;28;20234;-68
2022/03/13 07:02:26;;;;;;;14.37;6.23;;;6.10;99.90;;;;;;5021625;28;20565;-68
2022/03/13 07:04:52;;;;;;;10.07;5.53;;;6.60;99.90;;;;;;5019683;28;20197;-69
2022/03/13 07:07:20;;;;;;;9.67;5.97;;;7.00;99.90;;;;;;5039912;28;20307;-69
2022/03/13 07:09:46;;;;;;;12.60;6.73;;;7.40;99.90;;;;;;5023070;28;20209;-70
2022/03/13 07:12:14;;;;;;;10.23;5.60;;;7.60;98.80;;;;;;5013763;28;20215;-71
2022/03/13 07:14:46;;;;;;;10.60;6.53;;;7.80;97.90;;;;;;5021393;28;20704;-69
2022/03/13 07:17:14;;;;;;;10.57;6.17;;;8.00;96.90;;;;;;5015770;28;20225;-69
2022/03/13 07:19:43;;;;;;;12.13;6.37;;;8.00;96.40;;;;;;5040431;28;20206;-70
2022/03/13 07:22:12;;;;;;;10.20;6.17;;;7.80;95.50;;;;;;5029880;28;20190;-71
2022/03/13 07:24:40;;;;;;;10.57;5.77;;;7.70;95.50;;;;;;5025310;28;20730;-70
2022/03/13 07:27:07;;;;;;;14.60;5.97;;;7.60;95.50;;;;;;5031381;28;20222;-71
2022/03/13 07:29:35;;;;;;;10.17;5.77;;;7.60;95.80;;;;;;5030709;28;20233;-69
2022/03/13 07:32:02;;;;;;;18.13;6.10;;;7.70;95.50;;;;;;5024162;28;20223;-69
2022/03/13 07:34:28;;;;;;;9.93;5.87;;;7.80;95.20;;;;;;5019933;28;20717;-71
2022/03/13 07:36:55;;;;;;;10.77;5.57;;;7.90;94.80;;;;;;5024994;28;20196;-70
2022/03/13 07:39:22;;;;;;;16.63;6.10;;;8.00;94.90;;;;;;5019309;28;20196;-70
2022/03/13 07:41:49;;;;;;;10.63;6.20;;;8.00;94.90;;;;;;5019778;28;20204;-69
2022/03/13 07:44:15;;;;;;;13.00;6.20;;;8.00;94.90;;;;;;5019576;28;20187;-69
2022/03/13 07:46:43;;;;;;;8.93;5.60;;;8.00;94.70;;;;;;5018451;28;20199;-70
2022/03/13 07:49:10;;;;;;;9.50;5.97;;;7.90;94.60;;;;;;5013375;28;20192;-70
2022/03/13 07:51:36;;;;;;;9.43;5.87;;;7.80;94.60;;;;;;5022430;28;20208;-67
2022/03/13 07:54:03;;;;;;;9.67;6.07;;;7.70;94.60;;;;;;5020719;28;20196;-70
2022/03/13 07:56:30;;;;;;;11.17;6.27;;;7.60;94.50;;;;;;5019649;28;20362;-71
2022/03/13 07:58:56;;;;;;;11.23;5.77;;;7.70;94.90;;;;;;5020970;28;20265;-70
2022/03/13 08:01:23;;;;;;;11.80;6.50;;;7.80;95.30;;;;;;5017255;28;20305;-70
2022/03/13 08:03:51;;;;;;;11.53;6.43;;;7.90;94.90;;;;;;5024258;28;20265;-70
2022/03/13 08:06:18;;;;;;;11.97;6.67;;;8.20;94.90;;;;;;5021510;28;20678;-70
2022/03/13 08:08:45;;;;;;;11.50;6.73;;;8.30;94.60;;;;;;5018357;28;20228;-70
2022/03/13 08:11:11;;;;;;;12.67;6.43;;;8.50;94.90;;;;;;5025571;28;20195;-70
2022/03/13 08:13:38;;;;;;;14.67;6.83;;;8.70;94.90;;;;;;5017446;28;20205;-68
2022/03/13 08:16:04;;;;;;;13.77;7.40;;;8.70;94.50;;;;;;5015778;28;20340;-69
2022/03/13 08:18:35;;;;;;;10.67;6.13;;;8.80;94.60;;;;;;5020759;28;20253;-70
2022/03/13 08:21:02;;;;;;;13.93;6.77;;;8.80;94.10;;;;;;5023436;28;20200;-70
2022/03/13 08:23:29;;;;;;;13.17;6.10;;;8.70;94.20;;;;;;5021150;28;20195;-70
2022/03/13 08:25:56;;;;;;;10.70;6.57;;;8.80;94.30;;;;;;5026028;28;20200;-69
2022/03/13 08:28:23;;;;;;;12.43;6.50;;;8.80;94.30;;;;;;5024562;28;20222;-71
2022/03/13 08:30:55;;;;;;;11.93;6.73;;;8.70;94.20;;;;;;5022360;28;20196;-70
2022/03/13 08:33:22;;;;;;;11.60;6.67;;;8.70;94.50;;;;;;5020201;28;20690;-70
2022/03/13 08:35:48;;;;;;;16.10;7.20;;;8.80;94.70;;;;;;5017659;28;20214;-70
2022/03/13 08:38:16;;;;;;;13.30;6.50;;;8.90;94.40;;;;;;5023510;28;20227;-71
2022/03/13 08:40:43;;;;;;;12.97;7.20;;;9.10;94.50;;;;;;5026650;28;20192;-72
2022/03/13 08:43:09;;;;;;;10.57;6.27;;;9.20;94.60;;;;;;5024094;28;20216;-71
2022/03/13 08:45:36;;;;;;;11.27;6.73;;;9.40;94.00;;;;;;5023188;28;20209;-67
2022/03/13 08:48:03;;;;;;;11.13;6.30;;;9.20;93.80;;;;;;5021597;28;20564;-70
2022/03/13 08:50:39;;;;;;;11.50;6.60;;;9.00;94.10;;;;;;5022539;28;20659;-70
2022/03/13 08:53:07;;;;;;;13.60;6.37;;;9.00;94.40;;;;;;5024037;28;20292;-69
2022/03/13 08:55:33;;;;;;;11.77;6.80;;;9.00;94.40;;;;;;5021480;28;20219;-70
2022/03/13 08:58:00;;;;;;;12.30;6.97;;;9.00;94.10;;;;;;5024960;28;20800;-68
2022/03/13 09:00:26;;;;;;;13.17;6.70;;;9.10;94.30;;;;;;5019589;28;20264;-68
2022/03/13 09:02:53;;;;;;;14.43;7.10;;;9.40;94.40;;;;;;5021793;28;20239;-69
2022/03/13 09:05:21;;;;;;;13.40;7.33;;;9.60;94.40;;;;;;5016508;28;20630;-68
2022/03/13 09:07:47;;;;;;;10.93;6.63;;;9.90;94.20;;;;;;5022633;28;20219;-65
2022/03/13 09:10:15;;;;;;;15.10;6.97;;;10.10;93.70;;;;;;5031259;28;20198;-69
2022/03/13 09:12:41;;;;;;;11.50;7.47;;;10.30;93.50;;;;;;5023214;28;20864;-70
2022/03/13 09:15:08;;;;;;;12.23;7.10;;;10.30;93.70;;;;;;5020709;28;20717;-70
2022/03/13 09:17:36;;;;;;;13.80;7.43;;;10.40;93.30;;;;;;5022832;28;20262;-71
2022/03/13 09:20:04;;;;;;;15.20;8.00;;;10.50;93.30;;;;;;5022821;28;20672;-71
2022/03/13 09:22:31;;;;;;;16.70;8.80;;;10.50;93.50;;;;;;5028931;28;20206;-71
2022/03/13 09:24:58;;;;;;;10.93;7.10;;;10.50;93.20;;;;;;5029986;28;20195;-70
2022/03/13 09:27:30;;;;;;;10.20;7.33;;;10.50;92.90;;;;;;5012396;28;20275;-70
2022/03/13 09:29:57;;;;;;;11.77;7.30;;;10.60;93.10;;;;;;5027467;28;20199;-70
2022/03/13 09:32:25;;;;;;;12.13;7.13;;;10.60;93.40;;;;;;5020729;28;20200;-70
2022/03/13 09:34:53;;;;;;;13.57;8.40;;;10.70;93.10;;;;;;5023305;28;20671;-70
2022/03/13 09:37:21;;;;;;;17.70;7.70;;;10.80;92.80;;;;;;5025145;28;20224;-70
2022/03/13 09:40:09;;;;;;;11.07;6.83;;;10.80;92.80;;;;;;5026836;28;20254;-70
2022/03/13 09:42:37;;;;;;;11.67;7.30;;;11.00;92.90;;;;;;5025280;28;20203;-67
2022/03/13 09:45:04;;;;;;;13.03;7.50;;;11.00;92.70;;;;;;5014999;28;20208;-70
2022/03/13 09:47:31;;;;;;;13.23;7.80;;;11.10;92.50;;;;;;5023150;28;20226;-70
2022/03/13 09:49:58;;;;;;;14.27;6.93;;;11.20;92.30;;;;;;5022436;28;20274;-70
2022/03/13 09:52:25;;;;;;;13.20;7.43;;;11.30;92.50;;;;;;5011495;28;20208;-68
2022/03/13 09:54:51;;;;;;;13.67;7.80;;;11.50;92.50;;;;;;5018080;28;20661;-71
2022/03/13 09:57:19;;;;;;;12.43;7.63;;;11.70;92.30;;;;;;5020076;28;20245;-70
2022/03/13 09:59:46;;;;;;;11.57;7.30;;;11.80;91.70;;;;;;5028704;28;20212;-70
2022/03/13 10:02:14;;;;;;;12.87;7.47;;;11.30;91.80;;;;;;5025109;28;20204;-70
2022/03/13 10:04:40;;;;;;;12.20;7.47;;;11.20;92.40;;;;;;5017796;28;20194;-68
2022/03/13 10:07:11;;;;;;;12.93;7.30;;;11.30;92.40;;;;;;5016607;28;20217;-69
2022/03/13 10:09:40;;;;;;;11.97;7.83;;;11.50;92.30;;;;;;5018398;28;20204;-70
2022/03/13 10:12:16;;;;;;;15.63;8.10;;;11.70;92.40;;;;;;5026101;28;20208;-71
2022/03/13 10:15:05;;;;;;;12.27;7.70;;;12.00;92.40;;;;;;5025485;28;20208;-69
2022/03/13 10:17:37;;;;;;;16.37;7.57;;;12.10;91.90;;;;;;5020252;28;20216;-69
2022/03/13 10:20:25;;;;;;;13.83;7.67;;;12.10;91.30;;;;;;5022903;28;20202;-69
2022/03/13 10:23:01;;;;;;;15.80;8.27;;;11.90;92.30;;;;;;5020382;28;20222;-70
2022/03/13 10:25:38;;;;;;;12.90;7.40;;;11.90;91.70;;;;;;5028329;28;20192;-70
2022/03/13 10:28:26;;;;;;;13.13;7.93;;;11.80;92.50;;;;;;5026531;28;20227;-69
2022/03/13 10:30:58;;;;;;;12.67;7.50;;;11.90;91.70;;;;;;5020378;28;20199;-71
2022/03/13 10:33:45;;;;;;;11.83;7.20;;;12.00;91.50;;;;;;5023017;28;20582;-70
2022/03/13 10:36:34;;;;;;;13.77;8.30;;;12.10;91.50;;;;;;5015791;28;20275;-70
2022/03/13 10:39:03;;;;;;;14.23;8.47;;;12.30;92.20;;;;;;5019520;28;20613;-71
2022/03/13 10:41:47;;;;;;;13.93;8.30;;;12.50;91.90;;;;;;5022037;28;20187;-72
2022/03/13 10:44:20;;;;;;;25.97;12.63;;;12.80;91.30;;;;;;5022665;28;20213;-76
2022/03/13 10:46:57;;;;;;;14.70;8.27;;;13.00;91.30;;;;;;5027897;28;20217;-77
2022/03/13 10:49:40;;;;;;;14.37;8.27;;;13.20;91.20;;;;;;5019860;28;20286;-79
2022/03/13 10:52:25;;;;;;;12.23;8.00;;;13.40;90.40;;;;;;5017676;28;20231;-80
2022/03/13 10:54:53;;;;;;;13.00;8.40;;;12.90;90.50;;;;;;5016566;28;20193;-79
2022/03/13 10:57:20;;;;;;;12.67;8.40;;;12.60;91.00;;;;;;5022145;28;20249;-77
2022/03/13 11:00:15;;;;;;;13.77;8.33;;;12.80;91.50;;;;;;5014704;28;20200;-78
2022/03/13 11:02:43;;;;;;;13.13;7.67;;;13.10;90.70;;;;;;5020221;28;20205;-78
2022/03/13 11:05:09;;;;;;;13.10;8.50;;;13.20;90.60;;;;;;5022870;28;20950;-76
2022/03/13 11:07:36;;;;;;;14.47;8.50;;;13.30;90.60;;;;;;5021393;28;20216;-74
2022/03/13 11:10:06;;;;;;;13.80;8.10;;;13.40;90.40;;;;;;5028932;28;20675;-75
2022/03/13 11:12:33;;;;;;;11.53;8.17;;;13.40;90.30;;;;;;5019505;28;20205;-75
2022/03/13 11:15:01;;;;;;;15.47;8.73;;;13.40;90.40;;;;;;5026991;28;20205;-73
2022/03/13 11:17:38;;;;;;;15.60;8.37;;;13.30;90.10;;;;;;5026444;28;20209;-74
2022/03/13 11:20:08;;;;;;;14.53;8.60;;;13.40;90.60;;;;;;5026674;28;20199;-76
2022/03/13 11:22:35;;;;;;;13.77;8.30;;;13.30;90.20;;;;;;5027409;28;20196;-79
2022/03/13 11:25:05;;;;;;;13.13;8.27;;;13.20;90.70;;;;;;5024549;28;20198;-74
2022/03/13 11:27:35;;;;;;;11.77;8.10;;;13.10;90.80;;;;;;5019258;28;20259;-77
2022/03/13 11:30:03;;;;;;;13.97;8.60;;;13.30;91.20;;;;;;5014578;28;20199;-81
2022/03/13 11:32:38;;;;;;;14.93;8.57;;;13.30;90.50;;;;;;5026773;28;20199;-77
2022/03/13 11:35:08;;;;;;;14.53;8.47;;;13.50;91.10;;;;;;5026797;28;20188;-78
2022/03/13 11:37:34;;;;;;;13.90;8.40;;;13.60;91.10;;;;;;5025008;28;20234;-76
2022/03/13 11:40:04;;;;;;;13.40;8.17;;;13.60;90.70;;;;;;5014767;28;20193;-75
2022/03/13 11:42:56;;;;;;;14.03;8.10;;;13.60;90.60;;;;;;5021373;28;20571;-75
2022/03/13 11:45:28;;;;;;;15.47;9.20;;;13.80;90.80;;;;;;5022333;28;20200;-75
2022/03/13 11:48:04;;;;;;;12.63;8.47;;;13.90;90.40;;;;;;5024042;28;20565;-73
2022/03/13 11:50:51;;;;;;;15.53;9.03;;;14.00;90.90;;;;;;5028884;28;20208;-72
2022/03/13 11:53:23;;;;;;;15.73;8.80;;;14.10;90.30;;;;;;5021378;28;20198;-74
2022/03/13 11:56:10;;;;;;;14.13;8.47;;;14.00;90.40;;;;;;5020558;28;20593;-73
2022/03/13 11:58:54;;;;;;;17.83;9.47;;;14.00;90.50;;;;;;5022550;28;20223;-70
2022/03/13 12:01:35;;;;;;;18.60;9.60;;;14.00;90.20;;;;;;5023111;28;20227;-73
2022/03/13 12:04:04;;;;;;;17.03;9.83;;;13.80;90.40;;;;;;5016013;28;20285;-76
2022/03/13 12:06:44;;;;;;;16.73;9.43;;;13.80;90.60;;;;;;5020026;28;20290;-72
2022/03/13 12:09:14;;;;;;;15.50;8.87;;;13.80;90.40;;;;;;5020743;28;20196;-75
2022/03/13 12:11:42;;;;;;;15.13;9.20;;;14.00;90.30;;;;;;5018022;28;20663;-72
2022/03/13 12:14:10;;;;;;;13.80;8.70;;;13.90;90.40;;;;;;5026972;28;20222;-71
2022/03/13 12:16:39;;;;;;;13.67;8.50;;;13.80;90.30;;;;;;5028637;28;20221;-72
2022/03/13 12:19:07;;;;;;;13.97;8.70;;;14.00;90.60;;;;;;5022731;28;20214;-73
2022/03/13 12:21:35;;;;;;;15.97;8.73;;;14.10;90.00;;;;;;5026024;28;20204;-73
2022/03/13 12:24:18;;;;;;;14.53;8.57;;;14.20;89.80;;;;;;5025662;28;20197;-73
2022/03/13 12:26:46;;;;;;;15.70;9.07;;;14.10;90.00;;;;;;5026126;28;20199;-73
2022/03/13 12:29:15;;;;;;;16.13;9.27;;;14.10;90.20;;;;;;5024267;28;20198;-75
2022/03/13 12:31:46;;;;;;;19.60;8.97;;;14.20;90.20;;;;;;5026147;28;20464;-73
2022/03/13 12:34:13;;;;;;;13.73;8.97;;;14.40;90.00;;;;;;5025247;28;20202;-75
2022/03/13 12:36:43;;;;;;;16.20;9.97;;;14.60;90.30;;;;;;5021158;28;20584;-71
2022/03/13 12:39:16;;;;;;;14.67;9.10;;;14.80;89.40;;;;;;5021103;28;20191;-72
2022/03/13 12:41:44;;;;;;;15.23;9.43;;;15.00;89.00;;;;;;5025047;28;20202;-72
2022/03/13 12:44:12;;;;;;;14.80;8.73;;;15.20;89.60;;;;;;5024796;28;20682;-73
2022/03/13 12:46:41;;;;;;;20.40;9.20;;;14.90;87.90;;;;;;5019311;28;20257;-72
2022/03/13 12:49:10;;;;;;;13.67;8.93;;;14.60;89.10;;;;;;5020771;28;20225;-71
2022/03/13 12:51:45;;;;;;;14.13;9.03;;;14.60;89.30;;;;;;5019006;28;20574;-73